Weather at IIT Kanpur Airport

Public forecast

Using degrees Celsius for public forecast. Weather courtesy of forecast.io.

Closest aviation weather report (METAR) to IIT Kanpur Airport

Closest report is Chaudhary Charan Singh International Airport, 38.1 nm (70.5 km) ENE. Retrieved 2020/09/18 13:30 UTC (17 minutes ago):

VILK 181330Z 09005KT 4000 HZ SCT020 BKN200 32/28 Q1000 NOSIG

Closest aviation forecast (TAF) to IIT Kanpur Airport

Forecast is more than 12 hours old.

Closest forecast is Kanpur Airport, 11.8 nm (21.9 km) SE. Retrieved 2020/02/24 06:30 UTC (7 months ago):

TAF VICX 240330Z 2406/2418 07005KT 5000 HZ SCT100 SCT250 BECMG 2409/2412 6000 SCT100 SCT250TAF VEKU 240330Z 2406/2418 10003KT 6000 FEW025 SCT100 BKN250